createdAt,value
2023-05-10T00:01:34.345Z,4.20
2023-05-10T00:04:01.192Z,4.18
2023-05-10T00:06:29.030Z,3.72
2023-05-10T00:08:55.880Z,3.50
2023-05-10T00:11:23.251Z,3.90
2023-05-10T00:13:50.207Z,3.20
2023-05-10T00:16:17.034Z,3.53
2023-05-10T00:18:43.940Z,3.60
2023-05-10T00:21:10.732Z,3.85
2023-05-10T00:23:37.627Z,3.92
2023-05-10T00:26:04.425Z,3.63
2023-05-10T00:28:31.363Z,4.00
2023-05-10T00:30:58.214Z,4.18
2023-05-10T00:33:25.069Z,4.28
2023-05-10T00:35:51.923Z,4.25
2023-05-10T00:38:18.651Z,4.05
2023-05-10T00:40:45.470Z,4.30
2023-05-10T00:43:20.169Z,4.70
2023-05-10T00:45:48.314Z,4.55
2023-05-10T00:48:15.395Z,4.68
2023-05-10T00:50:42.352Z,4.55
2023-05-10T00:53:09.950Z,4.68
2023-05-10T00:55:37.320Z,4.30
2023-05-10T00:58:04.518Z,4.90
2023-05-10T01:00:31.485Z,4.50
2023-05-10T01:02:59.171Z,4.57
2023-05-10T01:05:26.132Z,4.55
2023-05-10T01:07:52.892Z,5.10
2023-05-10T01:10:19.770Z,4.45
2023-05-10T01:12:48.225Z,4.55
2023-05-10T01:15:17.330Z,4.63
2023-05-10T01:20:15.403Z,4.35
2023-05-10T01:22:57.674Z,4.75
2023-05-10T01:26:01.490Z,5.22
2023-05-10T01:29:05.220Z,5.05
2023-05-10T01:31:58.248Z,4.60
2023-05-10T01:34:28.502Z,4.07
2023-05-10T01:37:05.313Z,5.05
2023-05-10T01:39:45.598Z,4.68
2023-05-10T01:42:18.693Z,5.22
2023-05-10T01:45:04.143Z,4.70
2023-05-10T01:47:42.943Z,5.18
2023-05-10T01:50:23.532Z,4.97
2023-05-10T01:52:56.134Z,4.95
2023-05-10T01:55:27.162Z,4.85
2023-05-10T01:58:01.348Z,5.43
2023-05-10T02:00:29.903Z,5.47
2023-05-10T02:02:57.408Z,5.22
2023-05-10T02:05:25.415Z,5.03
2023-05-10T02:07:54.134Z,4.45
2023-05-10T02:10:21.747Z,5.20
2023-05-10T02:12:51.104Z,5.18
2023-05-10T02:15:25.748Z,5.10
2023-05-10T02:17:55.535Z,5.20
2023-05-10T02:20:24.405Z,5.28
2023-05-10T02:22:53.642Z,4.53
2023-05-10T02:25:22.523Z,4.50
2023-05-10T02:27:50.093Z,4.88
2023-05-10T02:30:19.085Z,5.60
2023-05-10T02:32:46.741Z,4.95
2023-05-10T02:35:14.270Z,5.25
2023-05-10T02:37:42.963Z,5.38
2023-05-10T02:40:11.116Z,5.43
2023-05-10T02:42:39.927Z,5.50
2023-05-10T02:45:12.701Z,5.20
2023-05-10T02:47:40.060Z,5.45
2023-05-10T02:50:08.245Z,5.13
2023-05-10T02:52:50.820Z,5.05
2023-05-10T02:55:22.561Z,5.75
2023-05-10T02:57:55.002Z,5.57
2023-05-10T03:00:21.901Z,5.63
2023-05-10T03:02:48.769Z,5.18
2023-05-10T03:05:15.620Z,5.68
2023-05-10T03:07:42.591Z,5.32
2023-05-10T03:10:10.567Z,5.55
2023-05-10T03:12:52.487Z,5.20
2023-05-10T03:15:30.154Z,5.35
2023-05-10T03:18:05.784Z,5.45
2023-05-10T03:20:38.389Z,5.25
2023-05-10T03:23:27.300Z,5.63
2023-05-10T03:25:54.501Z,4.88
2023-05-10T03:28:22.729Z,5.35
2023-05-10T03:30:50.977Z,5.20
2023-05-10T03:33:17.871Z,5.70
2023-05-10T03:35:46.983Z,5.40
2023-05-10T03:38:14.770Z,5.68
2023-05-10T03:40:41.720Z,5.70
2023-05-10T03:43:09.106Z,5.63
2023-05-10T03:45:36.666Z,5.13
2023-05-10T03:48:03.828Z,5.35
2023-05-10T03:50:30.727Z,5.72
2023-05-10T03:52:58.325Z,5.55
2023-05-10T03:55:25.362Z,5.22
2023-05-10T03:57:52.270Z,5.53
2023-05-10T04:00:19.286Z,5.10
2023-05-10T04:02:49.994Z,5.13
2023-05-10T04:05:19.462Z,5.57
2023-05-10T04:07:46.224Z,5.53
2023-05-10T04:10:13.070Z,5.22
2023-05-10T04:12:39.710Z,4.55
2023-05-10T04:15:07.813Z,4.85
2023-05-10T04:17:34.773Z,4.85
2023-05-10T04:20:01.545Z,5.20
2023-05-10T04:22:30.056Z,5.45
2023-05-10T04:24:56.762Z,4.68
2023-05-10T04:27:23.513Z,5.00
2023-05-10T04:29:50.213Z,4.93
2023-05-10T04:32:18.224Z,5.13
2023-05-10T04:34:45.021Z,5.18
2023-05-10T04:37:11.770Z,5.50
2023-05-10T04:39:40.242Z,4.82
2023-05-10T04:42:08.352Z,5.30
2023-05-10T04:44:35.353Z,4.50
2023-05-10T04:47:03.291Z,5.45
2023-05-10T04:49:30.741Z,4.90
2023-05-10T04:51:57.434Z,4.88
2023-05-10T04:54:24.299Z,5.57
2023-05-10T04:56:51.087Z,5.00
2023-05-10T04:59:18.248Z,5.13
2023-05-10T05:01:45.080Z,4.80
2023-05-10T05:04:12.087Z,4.63
2023-05-10T05:06:38.923Z,4.72
2023-05-10T05:09:05.619Z,5.30
2023-05-10T05:11:32.368Z,4.60
2023-05-10T05:14:00.327Z,5.15
2023-05-10T05:16:27.506Z,5.35
2023-05-10T05:18:54.468Z,4.75
2023-05-10T05:21:21.475Z,5.15
2023-05-10T05:23:48.187Z,4.55
2023-05-10T05:26:16.117Z,4.85
2023-05-10T05:28:43.222Z,4.93
2023-05-10T05:31:10.329Z,4.70
2023-05-10T05:33:37.793Z,4.90
2023-05-10T05:36:06.412Z,5.05
2023-05-10T05:38:33.246Z,4.85
2023-05-10T05:41:00.037Z,4.40
2023-05-10T05:43:26.862Z,4.68
2023-05-10T05:45:54.990Z,4.68
2023-05-10T05:48:22.123Z,4.95
2023-05-10T05:50:48.906Z,4.72
2023-05-10T05:53:15.805Z,4.93
2023-05-10T05:55:55.797Z,4.50
2023-05-10T05:58:23.512Z,4.70
2023-05-10T06:00:50.609Z,5.10
2023-05-10T06:03:17.527Z,4.47
2023-05-10T06:05:44.523Z,4.93
2023-05-10T06:08:11.580Z,5.03
2023-05-10T06:10:38.725Z,5.05
2023-05-10T06:13:05.756Z,4.38
2023-05-10T06:15:33.630Z,4.10
2023-05-10T06:18:00.584Z,4.53
2023-05-10T06:20:27.561Z,4.55
2023-05-10T06:22:54.438Z,4.50
2023-05-10T06:25:21.267Z,4.18
2023-05-10T06:27:51.724Z,4.50
2023-05-10T06:30:20.430Z,4.55
2023-05-10T06:32:47.252Z,4.70
2023-05-10T06:35:14.244Z,4.55
2023-05-10T06:37:40.994Z,4.28
2023-05-10T06:40:08.673Z,4.40
2023-05-10T06:42:35.375Z,5.47
2023-05-10T06:45:03.949Z,3.95
2023-05-10T06:47:30.775Z,3.60
2023-05-10T06:49:57.869Z,3.13
2023-05-10T06:52:24.731Z,3.55
2023-05-10T06:54:51.487Z,3.10
2023-05-10T06:57:30.561Z,3.35
2023-05-10T07:00:01.792Z,3.60
2023-05-10T07:02:29.075Z,3.30
2023-05-10T07:04:55.935Z,3.17
2023-05-10T07:07:22.814Z,3.10
2023-05-10T07:09:50.919Z,3.10
2023-05-10T07:12:17.791Z,2.78
2023-05-10T07:14:44.639Z,2.58
2023-05-10T07:17:11.699Z,2.72
2023-05-10T07:19:46.170Z,2.63
2023-05-10T07:22:14.028Z,2.67
2023-05-10T07:24:41.517Z,2.40
2023-05-10T07:27:08.308Z,2.38
2023-05-10T07:29:35.127Z,2.30
2023-05-10T07:32:02.298Z,2.55
2023-05-10T07:34:31.204Z,2.42
2023-05-10T07:36:59.848Z,2.20
2023-05-10T07:39:28.370Z,2.65
2023-05-10T07:41:56.183Z,2.40
2023-05-10T07:44:23.334Z,2.25
2023-05-10T07:46:50.395Z,2.22
2023-05-10T07:49:17.263Z,2.10
2023-05-10T07:51:44.410Z,2.20
2023-05-10T07:54:11.392Z,1.92
2023-05-10T07:56:38.265Z,2.03
2023-05-10T07:59:07.377Z,2.20
2023-05-10T08:01:35.661Z,2.00
2023-05-10T08:04:03.319Z,2.40
2023-05-10T08:06:31.349Z,2.35
2023-05-10T08:08:58.281Z,2.40
2023-05-10T08:11:25.305Z,2.28
2023-05-10T08:13:52.768Z,2.20
2023-05-10T08:16:20.415Z,2.45
2023-05-10T08:18:48.409Z,2.45
2023-05-10T08:21:16.021Z,2.17
2023-05-10T08:23:44.717Z,2.28
2023-05-10T08:26:11.909Z,1.97
2023-05-10T08:28:39.005Z,2.20
2023-05-10T08:31:06.606Z,2.10
2023-05-10T08:33:33.895Z,2.10
2023-05-10T08:36:00.683Z,2.33
2023-05-10T08:38:27.578Z,2.22
2023-05-10T08:40:59.744Z,2.50
2023-05-10T08:43:30.875Z,2.33
2023-05-10T08:46:02.169Z,2.55
2023-05-10T08:48:31.136Z,2.30
2023-05-10T08:51:00.951Z,2.10
2023-05-10T08:55:56.738Z,2.20
2023-05-10T08:58:23.790Z,2.10
2023-05-10T09:00:53.912Z,2.05
2023-05-10T09:03:21.077Z,2.50
2023-05-10T09:05:48.702Z,2.10
2023-05-10T09:08:17.326Z,2.42
2023-05-10T09:10:45.439Z,2.42
2023-05-10T09:13:15.069Z,2.20
2023-05-10T09:15:42.209Z,2.40
2023-05-10T09:18:08.937Z,2.50
2023-05-10T09:20:35.844Z,2.30
2023-05-10T09:23:02.553Z,2.42
2023-05-10T09:25:29.449Z,2.10
2023-05-10T09:27:56.502Z,2.40
2023-05-10T09:30:31.638Z,2.45
2023-05-10T09:33:00.131Z,2.65
2023-05-10T09:35:31.579Z,2.05
2023-05-10T09:38:02.222Z,2.30
2023-05-10T09:40:31.131Z,2.22
2023-05-10T09:42:59.723Z,2.00
2023-05-10T09:45:31.665Z,2.13
2023-05-10T09:48:00.137Z,2.45
2023-05-10T09:50:27.851Z,2.35
2023-05-10T09:53:00.227Z,2.28
2023-05-10T09:55:45.921Z,2.30
2023-05-10T09:58:14.643Z,2.28
2023-05-10T10:00:45.780Z,1.98
2023-05-10T10:03:15.706Z,2.17
2023-05-10T10:08:11.230Z,2.10
2023-05-10T10:10:38.081Z,2.08
2023-05-10T10:13:05.880Z,2.25
2023-05-10T10:15:34.326Z,2.25
2023-05-10T10:18:01.598Z,2.10
2023-05-10T10:20:30.117Z,2.08
2023-05-10T10:22:56.893Z,2.00
2023-05-10T10:25:24.186Z,2.25
2023-05-10T10:27:53.887Z,2.13
2023-05-10T10:33:30.733Z,3.38
2023-05-10T10:36:01.065Z,2.50
2023-05-10T10:38:48.844Z,2.47
2023-05-10T10:41:33.830Z,2.28
2023-05-10T10:44:34.668Z,2.13
2023-05-10T10:47:10.315Z,2.40
2023-05-10T10:49:49.421Z,2.85
2023-05-10T10:52:22.825Z,2.63
2023-05-10T10:55:10.121Z,3.50
2023-05-10T10:58:05.493Z,3.03
2023-05-10T11:00:34.228Z,2.60
2023-05-10T11:03:17.954Z,2.50
2023-05-10T11:05:49.065Z,2.58
2023-05-10T11:08:30.713Z,2.30
2023-05-10T11:11:00.640Z,2.30
2023-05-10T11:13:42.587Z,2.28
2023-05-10T11:16:13.955Z,2.05
2023-05-10T11:18:41.699Z,2.22
2023-05-10T11:21:11.707Z,2.00
2023-05-10T11:23:44.568Z,1.80
2023-05-10T11:26:12.576Z,2.08
2023-05-10T11:28:46.432Z,2.53
2023-05-10T11:31:20.911Z,2.22
2023-05-10T11:33:54.033Z,1.92
2023-05-10T11:36:28.461Z,1.90
2023-05-10T11:38:57.476Z,1.85
2023-05-10T11:41:25.720Z,1.87
2023-05-10T11:43:54.973Z,1.60
2023-05-10T11:46:24.531Z,1.70
2023-05-10T11:48:53.269Z,1.80
2023-05-10T11:51:25.408Z,1.88
2023-05-10T11:53:55.802Z,1.98
2023-05-10T11:56:23.072Z,1.80
2023-05-10T11:58:58.149Z,1.70
2023-05-10T12:01:28.863Z,1.52
2023-05-10T12:04:00.018Z,1.55
2023-05-10T12:06:33.553Z,1.75
2023-05-10T12:09:00.674Z,1.63
2023-05-10T12:11:29.560Z,2.03
2023-05-10T12:13:57.551Z,1.77
2023-05-10T12:16:30.565Z,2.67
2023-05-10T12:18:59.620Z,2.15
2023-05-10T12:21:27.211Z,2.20
2023-05-10T12:23:56.596Z,1.67
2023-05-10T12:26:24.285Z,1.65
2023-05-10T12:28:51.083Z,1.73
2023-05-10T12:31:17.869Z,1.67
2023-05-10T12:33:46.314Z,1.42
2023-05-10T12:36:14.887Z,1.67
2023-05-10T12:38:44.358Z,1.70
2023-05-10T12:41:13.067Z,1.65
2023-05-10T12:43:40.556Z,1.90
2023-05-10T12:46:12.253Z,1.52
2023-05-10T12:48:40.385Z,1.70
2023-05-10T12:51:10.340Z,1.40
2023-05-10T12:53:37.781Z,1.40
2023-05-10T12:56:04.754Z,1.55
2023-05-10T12:58:36.035Z,1.67
2023-05-10T13:01:03.674Z,1.60
2023-05-10T13:03:30.675Z,1.40
2023-05-10T13:05:57.635Z,1.90
2023-05-10T13:08:24.532Z,1.60
2023-05-10T13:10:51.298Z,1.20
2023-05-10T13:13:19.288Z,1.60
2023-05-10T13:15:46.051Z,1.27
2023-05-10T13:18:12.954Z,1.48
2023-05-10T13:20:39.664Z,1.48
2023-05-10T13:23:06.503Z,1.50
2023-05-10T13:25:33.386Z,1.40
2023-05-10T13:28:00.210Z,1.40
2023-05-10T13:30:27.086Z,1.42
2023-05-10T13:32:53.880Z,1.67
2023-05-10T13:35:20.744Z,1.77
2023-05-10T13:37:47.692Z,1.42
2023-05-10T13:40:16.531Z,1.52
2023-05-10T13:42:43.588Z,1.48
2023-05-10T13:45:13.245Z,1.90
2023-05-10T13:47:40.352Z,1.65
2023-05-10T13:50:07.877Z,1.70
2023-05-10T13:52:34.725Z,1.40
2023-05-10T13:55:01.724Z,1.98
2023-05-10T13:57:29.847Z,1.20
2023-05-10T13:59:58.328Z,1.60
2023-05-10T14:02:25.784Z,1.67
2023-05-10T14:04:52.728Z,1.48
2023-05-10T14:07:19.484Z,1.35
2023-05-10T14:09:46.545Z,1.55
2023-05-10T14:12:13.306Z,1.40
2023-05-10T14:14:40.291Z,1.70
2023-05-10T14:17:07.026Z,1.60
2023-05-10T14:19:35.064Z,1.40
2023-05-10T14:22:01.780Z,1.77
2023-05-10T14:24:28.594Z,1.45
2023-05-10T14:26:55.370Z,1.50
2023-05-10T14:29:23.087Z,2.40
2023-05-10T14:31:49.880Z,1.60
2023-05-10T14:34:16.661Z,1.67
2023-05-10T14:36:43.353Z,1.80
2023-05-10T14:39:11.288Z,1.80
2023-05-10T14:41:38.731Z,1.40
2023-05-10T14:44:05.939Z,1.67
2023-05-10T14:46:32.719Z,1.45
2023-05-10T14:48:59.566Z,1.55
2023-05-10T14:51:26.341Z,1.52
2023-05-10T14:53:53.007Z,1.30
2023-05-10T14:56:19.746Z,1.35
2023-05-10T14:58:46.516Z,1.40
2023-05-10T15:01:13.441Z,1.77
2023-05-10T15:03:40.846Z,1.50
2023-05-10T15:06:09.518Z,1.50
2023-05-10T15:08:36.275Z,1.45
2023-05-10T15:11:03.704Z,2.33
2023-05-10T15:13:30.680Z,1.67
2023-05-10T15:15:57.580Z,1.75
2023-05-10T15:18:27.040Z,1.60
2023-05-10T15:20:53.787Z,1.77
2023-05-10T15:23:20.481Z,1.48
2023-05-10T15:25:47.250Z,1.45
2023-05-10T15:28:14.369Z,1.58
2023-05-10T15:30:41.469Z,1.40
2023-05-10T15:33:09.708Z,1.67
2023-05-10T15:35:39.198Z,1.30
2023-05-10T15:38:06.831Z,1.27
2023-05-10T15:40:34.002Z,1.65
2023-05-10T15:43:00.741Z,1.98
2023-05-10T15:45:27.602Z,1.58
2023-05-10T15:47:54.339Z,1.85
2023-05-10T15:50:21.270Z,1.42
2023-05-10T15:52:48.030Z,1.50
2023-05-10T15:55:15.462Z,1.55
2023-05-10T15:57:43.748Z,1.75
2023-05-10T16:00:12.720Z,1.70
2023-05-10T16:02:40.831Z,1.33
2023-05-10T16:05:08.538Z,1.42
2023-05-10T16:07:35.777Z,1.63
2023-05-10T16:10:09.169Z,1.50
2023-05-10T16:12:36.260Z,1.48
2023-05-10T16:15:03.051Z,1.73
2023-05-10T16:17:29.983Z,1.65
2023-05-10T16:19:56.717Z,1.50
2023-05-10T16:22:27.213Z,1.50
2023-05-10T16:24:54.023Z,1.80
2023-05-10T16:27:20.811Z,1.60
2023-05-10T16:29:48.071Z,1.95
2023-05-10T16:32:14.852Z,1.55
2023-05-10T16:34:41.734Z,1.95
2023-05-10T16:37:08.578Z,1.50
2023-05-10T16:39:35.340Z,1.33
2023-05-10T16:42:02.152Z,1.88
2023-05-10T16:44:28.997Z,1.40
2023-05-10T16:46:56.102Z,1.60
2023-05-10T16:49:24.437Z,1.55
2023-05-10T16:51:52.717Z,1.60
2023-05-10T16:54:20.372Z,1.80
2023-05-10T16:56:47.092Z,1.50
2023-05-10T16:59:13.881Z,1.80
2023-05-10T17:01:41.791Z,1.80
2023-05-10T17:04:08.701Z,2.13
2023-05-10T17:06:36.809Z,1.70
2023-05-10T17:09:04.090Z,1.85
2023-05-10T17:11:31.234Z,2.03
2023-05-10T17:13:59.586Z,1.60
2023-05-10T17:16:27.019Z,1.85
2023-05-10T17:18:53.847Z,1.73
2023-05-10T17:21:21.205Z,1.73
2023-05-10T17:23:47.920Z,1.85
2023-05-10T17:26:14.697Z,1.50
2023-05-10T17:28:41.502Z,1.88
2023-05-10T17:31:08.731Z,1.45
2023-05-10T17:33:35.482Z,1.88
2023-05-10T17:36:02.437Z,1.45
2023-05-10T17:38:29.125Z,1.48
2023-05-10T17:40:55.848Z,1.77
2023-05-10T17:43:23.463Z,1.48
2023-05-10T17:45:50.308Z,1.73
2023-05-10T17:48:17.368Z,1.50
2023-05-10T17:50:44.410Z,1.60
2023-05-10T17:53:11.182Z,1.60
2023-05-10T17:55:42.316Z,1.48
2023-05-10T17:58:11.328Z,1.80
2023-05-10T18:00:38.797Z,1.60
2023-05-10T18:03:06.144Z,1.33
2023-05-10T18:05:37.232Z,1.60
2023-05-10T18:08:05.316Z,1.50
2023-05-10T18:10:32.444Z,1.70
2023-05-10T18:12:59.297Z,1.75
2023-05-10T18:15:26.935Z,1.38
2023-05-10T18:17:53.839Z,1.55
2023-05-10T18:20:20.675Z,1.75
2023-05-10T18:22:47.536Z,1.63
2023-05-10T18:25:14.373Z,1.80
2023-05-10T18:27:41.332Z,2.00
2023-05-10T18:30:10.146Z,2.00
2023-05-10T18:32:38.458Z,1.92
2023-05-10T18:35:06.912Z,2.30
2023-05-10T18:37:34.280Z,2.33
2023-05-10T18:40:01.025Z,2.75
2023-05-10T18:42:28.117Z,2.60
2023-05-10T18:44:55.819Z,2.53
2023-05-10T18:47:22.751Z,2.25
2023-05-10T18:49:49.564Z,2.00
2023-05-10T18:52:16.355Z,1.85
2023-05-10T18:54:43.057Z,1.92
2023-05-10T18:57:10.127Z,2.00
2023-05-10T18:59:37.030Z,1.95
2023-05-10T19:02:04.803Z,1.70
2023-05-10T19:04:31.661Z,1.80
2023-05-10T19:06:58.374Z,1.75
2023-05-10T19:09:26.652Z,1.50
2023-05-10T19:11:53.556Z,1.77
2023-05-10T19:14:20.740Z,1.77
2023-05-10T19:16:53.219Z,1.73
2023-05-10T19:19:20.633Z,1.90
2023-05-10T19:21:48.211Z,2.20
2023-05-10T19:24:15.006Z,2.42
2023-05-10T19:26:41.810Z,2.00
2023-05-10T19:29:09.549Z,1.80
2023-05-10T19:31:36.343Z,2.30
2023-05-10T19:34:04.135Z,1.80
2023-05-10T19:36:31.526Z,2.42
2023-05-10T19:38:58.292Z,1.77
2023-05-10T19:41:25.078Z,2.38
2023-05-10T19:43:53.039Z,2.20
2023-05-10T19:46:20.460Z,1.92
2023-05-10T19:48:47.379Z,2.25
2023-05-10T19:51:14.088Z,2.08
2023-05-10T19:53:44.893Z,1.90
2023-05-10T19:56:12.896Z,2.78
2023-05-10T19:58:40.206Z,2.17
2023-05-10T20:01:07.975Z,2.38
2023-05-10T20:03:35.702Z,2.53
2023-05-10T20:06:04.043Z,2.17
2023-05-10T20:08:31.074Z,2.50
2023-05-10T20:10:59.207Z,2.38
2023-05-10T20:13:26.239Z,2.30
2023-05-10T20:15:59.881Z,2.30
2023-05-10T20:18:27.184Z,2.05
2023-05-10T20:20:55.108Z,2.50
2023-05-10T20:23:22.513Z,2.35
2023-05-10T20:25:49.913Z,2.15
2023-05-10T20:28:25.222Z,2.22
2023-05-10T20:30:54.288Z,2.25
2023-05-10T20:33:25.480Z,2.07
2023-05-10T20:35:52.519Z,2.20
2023-05-10T20:38:19.311Z,2.08
2023-05-10T20:40:47.374Z,2.20
2023-05-10T20:43:14.116Z,1.90
2023-05-10T20:45:40.972Z,1.85
2023-05-10T20:48:08.017Z,1.77
2023-05-10T20:50:34.801Z,2.53
2023-05-10T20:53:01.532Z,1.80
2023-05-10T20:55:28.690Z,1.92
2023-05-10T20:57:55.670Z,2.03
2023-05-10T21:00:22.395Z,2.40
2023-05-10T21:02:49.579Z,2.03
2023-05-10T21:05:18.367Z,1.98
2023-05-10T21:07:45.065Z,2.00
2023-05-10T21:10:12.363Z,2.00
2023-05-10T21:12:39.259Z,2.10
2023-05-10T21:15:06.576Z,2.33
2023-05-10T21:17:33.852Z,2.05
2023-05-10T21:20:00.862Z,2.10
2023-05-10T21:22:27.689Z,1.67
2023-05-10T21:24:54.415Z,1.98
2023-05-10T21:27:21.505Z,3.35
2023-05-10T21:29:48.347Z,2.03
2023-05-10T21:32:15.121Z,2.17
2023-05-10T21:34:42.083Z,1.98
2023-05-10T21:37:09.023Z,1.83
2023-05-10T21:39:36.050Z,2.05
2023-05-10T21:42:03.759Z,2.05
2023-05-10T21:44:31.797Z,2.25
2023-05-10T21:46:58.617Z,2.22
2023-05-10T21:49:25.320Z,2.40
2023-05-10T21:51:52.131Z,2.40
2023-05-10T21:54:18.896Z,1.92
2023-05-10T21:56:45.684Z,2.42
2023-05-10T21:59:12.456Z,2.17
2023-05-10T22:01:39.336Z,2.03
2023-05-10T22:04:06.101Z,1.98
2023-05-10T22:06:32.845Z,2.00
2023-05-10T22:08:59.655Z,2.00
2023-05-10T22:11:26.844Z,2.40
2023-05-10T22:13:53.606Z,2.13
2023-05-10T22:16:20.620Z,1.90
2023-05-10T22:18:47.515Z,2.40
2023-05-10T22:21:14.287Z,2.00
2023-05-10T22:23:41.153Z,2.30
2023-05-10T22:26:07.945Z,2.10
2023-05-10T22:28:34.703Z,2.28
2023-05-10T22:31:01.556Z,2.30
2023-05-10T22:33:28.246Z,2.17
2023-05-10T22:35:55.167Z,2.10
2023-05-10T22:38:22.423Z,2.20
2023-05-10T22:40:49.245Z,1.83
2023-05-10T22:43:16.978Z,2.47
2023-05-10T22:45:44.033Z,2.10
2023-05-10T22:48:10.811Z,2.67
2023-05-10T22:50:37.639Z,2.40
2023-05-10T22:53:04.373Z,2.30
2023-05-10T22:55:31.237Z,2.30
2023-05-10T22:57:58.201Z,2.88
2023-05-10T23:00:25.002Z,2.45
2023-05-10T23:02:51.967Z,3.00
2023-05-10T23:05:19.173Z,2.60
2023-05-10T23:07:48.448Z,2.90
2023-05-10T23:10:15.381Z,2.47
2023-05-10T23:12:42.291Z,2.70
2023-05-10T23:15:09.693Z,2.42
2023-05-10T23:17:36.550Z,2.53
2023-05-10T23:20:03.679Z,2.10
2023-05-10T23:22:30.434Z,2.38
2023-05-10T23:24:57.422Z,2.10
2023-05-10T23:27:24.200Z,2.00
2023-05-10T23:29:55.500Z,2.50
2023-05-10T23:32:22.965Z,2.10
2023-05-10T23:34:49.804Z,1.98
2023-05-10T23:37:17.024Z,2.30
2023-05-10T23:39:43.704Z,2.50
2023-05-10T23:42:10.499Z,2.15
2023-05-10T23:44:37.149Z,2.60
2023-05-10T23:47:03.946Z,2.45
2023-05-10T23:49:30.915Z,2.65
2023-05-10T23:51:57.694Z,2.20
2023-05-10T23:54:24.353Z,2.20
2023-05-10T23:56:51.720Z,2.50
2023-05-10T23:59:18.458Z,2.20
